createdAt,value
2019-02-23T00:00:37.472Z,0.00
2019-02-23T00:01:37.509Z,0.00
2019-02-23T00:02:37.458Z,0.00
2019-02-23T00:03:37.454Z,0.00
2019-02-23T00:04:37.436Z,0.00
2019-02-23T00:05:37.425Z,0.00
2019-02-23T00:06:37.432Z,0.00
2019-02-23T00:07:37.431Z,0.00
2019-02-23T00:08:37.389Z,0.00
2019-02-23T00:09:37.403Z,0.00
2019-02-23T00:10:37.368Z,0.00
2019-02-23T00:11:37.361Z,0.00
2019-02-23T00:12:37.353Z,0.00
2019-02-23T00:13:37.373Z,0.00
2019-02-23T00:14:37.365Z,0.00
2019-02-23T00:15:37.316Z,0.00
2019-02-23T00:16:37.313Z,0.00
2019-02-23T00:17:37.296Z,0.00
2019-02-23T00:18:37.284Z,0.00
2019-02-23T00:19:37.449Z,0.00
2019-02-23T00:20:37.281Z,0.00
2019-02-23T00:21:37.258Z,0.00
2019-02-23T00:22:37.247Z,0.00
2019-02-23T00:23:37.239Z,0.00
2019-02-23T00:24:37.223Z,0.00
2019-02-23T00:25:37.257Z,0.00
2019-02-23T00:26:37.224Z,0.00
2019-02-23T00:27:47.599Z,0.00
2019-02-23T00:28:37.184Z,0.00
2019-02-23T00:29:37.176Z,0.00
2019-02-23T00:30:37.164Z,0.00
2019-02-23T00:31:37.195Z,0.00
2019-02-23T00:32:37.136Z,0.00
2019-02-23T00:33:37.157Z,0.00
2019-02-23T00:34:37.121Z,0.00
2019-02-23T00:35:37.114Z,0.00
2019-02-23T00:36:37.125Z,0.00
2019-02-23T00:37:37.259Z,0.00
2019-02-23T00:38:37.079Z,0.00
2019-02-23T00:39:37.065Z,0.00
2019-02-23T00:40:37.061Z,0.00
2019-02-23T00:41:37.072Z,0.00
2019-02-23T00:42:37.040Z,0.00
2019-02-23T00:43:37.062Z,0.00
2019-02-23T00:44:37.012Z,0.00
2019-02-23T00:45:37.006Z,0.00
2019-02-23T00:46:37.000Z,0.00
2019-02-23T00:47:37.998Z,0.00
2019-02-23T00:48:36.969Z,0.00
2019-02-23T00:49:37.019Z,0.00
2019-02-23T00:50:36.953Z,0.00
2019-02-23T00:51:36.941Z,0.00
2019-02-23T00:52:36.929Z,0.00
2019-02-23T00:53:36.935Z,0.00
2019-02-23T00:54:36.907Z,0.00
2019-02-23T00:55:36.939Z,0.00
2019-02-23T00:56:36.895Z,0.00
2019-02-23T00:57:36.884Z,0.00
2019-02-23T00:58:46.843Z,0.00
2019-02-23T00:59:36.862Z,0.00
2019-02-23T01:00:36.851Z,0.00
2019-02-23T01:01:36.904Z,0.00
2019-02-23T01:02:36.831Z,0.00
2019-02-23T01:03:36.848Z,0.00
2019-02-23T01:04:36.801Z,0.00
2019-02-23T01:05:36.798Z,0.00
2019-02-23T01:06:36.809Z,0.00
2019-02-23T01:07:36.979Z,0.00
2019-02-23T01:08:36.767Z,0.00
2019-02-23T01:09:36.752Z,0.00
2019-02-23T01:10:36.740Z,0.00
2019-02-23T01:11:36.758Z,0.00
2019-02-23T01:12:36.723Z,0.00
2019-02-23T01:13:36.724Z,0.00
2019-02-23T01:14:36.703Z,0.00
2019-02-23T01:15:36.688Z,0.00
2019-02-23T01:16:36.680Z,0.00
2019-02-23T01:17:36.687Z,0.00
2019-02-23T01:18:36.658Z,0.00
2019-02-23T01:19:47.021Z,0.00
2019-02-23T01:20:37.633Z,0.00
2019-02-23T01:21:36.628Z,0.00
2019-02-23T01:22:36.617Z,0.00
2019-02-23T01:23:36.630Z,0.00
2019-02-23T01:24:36.594Z,0.00
2019-02-23T01:25:36.622Z,0.00
2019-02-23T01:26:36.572Z,0.00
2019-02-23T01:27:36.567Z,0.00
2019-02-23T01:28:36.558Z,0.00
2019-02-23T01:29:48.105Z,0.00
2019-02-23T01:30:36.529Z,0.00
2019-02-23T01:31:36.560Z,0.00
2019-02-23T01:32:36.511Z,0.00
2019-02-23T01:33:36.499Z,0.00
2019-02-23T01:34:36.509Z,0.00
2019-02-23T01:35:36.486Z,0.00
2019-02-23T01:36:36.468Z,0.00
2019-02-23T01:37:36.518Z,0.00
2019-02-23T01:38:36.453Z,0.00
2019-02-23T01:39:36.436Z,0.00
2019-02-23T01:40:36.426Z,0.00
2019-02-23T01:41:36.420Z,0.00
2019-02-23T01:42:36.438Z,0.00
2019-02-23T01:43:36.430Z,0.00
2019-02-23T01:44:36.390Z,0.00
2019-02-23T01:45:42.321Z,0.00
2019-02-23T01:46:37.365Z,0.00
2019-02-23T01:47:36.358Z,0.00
2019-02-23T01:48:36.367Z,0.00
2019-02-23T01:49:36.377Z,0.00
2019-02-23T01:50:36.325Z,0.00
2019-02-23T01:51:36.311Z,0.00
2019-02-23T01:52:36.301Z,0.00
2019-02-23T01:53:36.292Z,0.00
2019-02-23T01:54:36.338Z,0.00
2019-02-23T01:55:36.309Z,0.00
2019-02-23T01:56:36.263Z,0.00
2019-02-23T01:57:36.255Z,0.00
2019-02-23T01:58:36.241Z,0.00
2019-02-23T01:59:36.229Z,0.00
2019-02-23T02:00:47.602Z,0.00
2019-02-23T02:01:36.214Z,0.00
2019-02-23T02:02:36.199Z,0.00
2019-02-23T02:03:36.183Z,0.00
2019-02-23T02:04:36.176Z,0.00
2019-02-23T02:05:36.191Z,0.00
2019-02-23T02:06:36.190Z,0.00
2019-02-23T02:07:36.146Z,0.00
2019-02-23T02:08:36.156Z,0.00
2019-02-23T02:09:36.121Z,0.00
2019-02-23T02:10:36.109Z,0.00
2019-02-23T02:11:36.103Z,0.00
2019-02-23T02:12:36.263Z,0.00
2019-02-23T02:13:36.104Z,0.00
2019-02-23T02:14:36.073Z,0.00
2019-02-23T02:15:36.062Z,0.00
2019-02-23T02:16:36.051Z,0.00
2019-02-23T02:17:36.043Z,0.00
2019-02-23T02:18:36.062Z,0.00
2019-02-23T02:19:36.049Z,0.00
2019-02-23T02:20:36.016Z,0.00
2019-02-23T02:21:36.001Z,0.00
2019-02-23T02:22:35.989Z,0.00
2019-02-23T02:23:35.976Z,0.00
2019-02-23T02:24:36.001Z,0.00
2019-02-23T02:25:35.978Z,0.00
2019-02-23T02:26:35.941Z,0.00
2019-02-23T02:27:35.936Z,0.00
2019-02-23T02:28:35.921Z,0.00
2019-02-23T02:29:35.912Z,0.00
2019-02-23T02:30:35.941Z,0.00
2019-02-23T02:31:46.054Z,0.00
2019-02-23T02:32:35.880Z,0.00
2019-02-23T02:33:35.870Z,0.00
2019-02-23T02:34:35.858Z,0.00
2019-02-23T02:35:35.845Z,0.00
2019-02-23T02:36:35.879Z,0.00
2019-02-23T02:37:35.849Z,0.00
2019-02-23T02:38:35.815Z,0.00
2019-02-23T02:39:35.809Z,0.00
2019-02-23T02:40:35.821Z,0.00
2019-02-23T02:41:35.794Z,0.00
2019-02-23T02:42:35.813Z,0.00
2019-02-23T02:43:35.763Z,0.00
2019-02-23T02:44:35.754Z,0.00
2019-02-23T02:45:35.760Z,0.00
2019-02-23T02:46:35.732Z,0.00
2019-02-23T02:47:35.722Z,0.00
2019-02-23T02:48:35.746Z,0.00
2019-02-23T02:49:35.702Z,0.00
2019-02-23T02:50:35.685Z,0.00
2019-02-23T02:51:35.693Z,0.00
2019-02-23T02:52:35.668Z,0.00
2019-02-23T02:53:35.662Z,0.00
2019-02-23T02:54:35.683Z,0.00
2019-02-23T02:55:35.639Z,0.00
2019-02-23T02:56:35.623Z,0.00
2019-02-23T02:57:35.638Z,0.00
2019-02-23T02:58:35.608Z,0.00
2019-02-23T02:59:35.599Z,0.00
2019-02-23T03:00:35.617Z,0.00
2019-02-23T03:01:35.572Z,0.00
2019-02-23T03:02:45.651Z,0.00
2019-02-23T03:03:35.551Z,0.00
2019-02-23T03:04:35.543Z,0.00
2019-02-23T03:05:35.534Z,0.00
2019-02-23T03:06:35.555Z,0.00
2019-02-23T03:07:35.517Z,0.00
2019-02-23T03:08:35.501Z,0.00
2019-02-23T03:09:35.488Z,0.00
2019-02-23T03:10:35.509Z,0.00
2019-02-23T03:11:35.469Z,0.00
2019-02-23T03:12:35.496Z,0.00
2019-02-23T03:13:35.444Z,0.00
2019-02-23T03:14:35.433Z,0.00
2019-02-23T03:15:35.442Z,0.00
2019-02-23T03:16:35.415Z,0.00
2019-02-23T03:17:35.403Z,0.00
2019-02-23T03:18:35.568Z,0.00
2019-02-23T03:19:35.381Z,0.00
2019-02-23T03:20:36.839Z,0.00
2019-02-23T03:21:35.379Z,0.00
2019-02-23T03:22:35.350Z,0.00
2019-02-23T03:23:35.340Z,0.00
2019-02-23T03:24:35.428Z,0.00
2019-02-23T03:25:35.323Z,0.00
2019-02-23T03:26:35.308Z,0.00
2019-02-23T03:27:35.391Z,0.00
2019-02-23T03:28:35.283Z,0.00
2019-02-23T03:29:35.280Z,0.00
2019-02-23T03:30:35.323Z,0.00
2019-02-23T03:31:35.257Z,0.00
2019-02-23T03:32:35.252Z,0.00
2019-02-23T03:33:45.647Z,0.00
2019-02-23T03:34:35.226Z,0.00
2019-02-23T03:35:35.216Z,0.00
2019-02-23T03:36:35.221Z,0.00
2019-02-23T03:37:35.190Z,0.00
2019-02-23T03:38:35.179Z,0.00
2019-02-23T03:39:35.172Z,0.00
2019-02-23T03:40:35.159Z,0.00
2019-02-23T03:41:35.144Z,0.00
2019-02-23T03:42:35.188Z,0.00
2019-02-23T03:43:35.130Z,0.00
2019-02-23T03:44:35.117Z,0.00
2019-02-23T03:45:35.122Z,0.00
2019-02-23T03:46:35.100Z,0.00
2019-02-23T03:47:35.083Z,0.00
2019-02-23T03:48:35.108Z,0.00
2019-02-23T03:49:35.059Z,0.00
2019-02-23T03:50:35.070Z,0.00
2019-02-23T03:51:35.044Z,0.00
2019-02-23T03:52:35.030Z,0.00
2019-02-23T03:53:35.021Z,0.00
2019-02-23T03:54:35.048Z,0.00
2019-02-23T03:55:35.003Z,0.00
2019-02-23T03:56:35.007Z,0.00
2019-02-23T03:57:34.977Z,0.00
2019-02-23T03:58:34.970Z,0.00
2019-02-23T03:59:34.957Z,0.00
2019-02-23T04:00:34.987Z,0.00
2019-02-23T04:01:34.939Z,0.00
2019-02-23T04:02:34.953Z,0.00
2019-02-23T04:03:34.919Z,0.00
2019-02-23T04:04:44.874Z,0.00
2019-02-23T04:05:34.892Z,0.00
2019-02-23T04:06:34.921Z,0.00
2019-02-23T04:07:34.875Z,0.00
2019-02-23T04:08:34.862Z,0.00
2019-02-23T04:09:34.879Z,0.00
2019-02-23T04:10:34.844Z,0.00
2019-02-23T04:11:34.828Z,0.00
2019-02-23T04:12:35.019Z,0.00
2019-02-23T04:13:34.813Z,0.00
2019-02-23T04:14:34.798Z,0.00
2019-02-23T04:15:34.789Z,0.00
2019-02-23T04:16:34.783Z,0.00
2019-02-23T04:17:34.791Z,0.00
2019-02-23T04:18:34.793Z,0.00
2019-02-23T04:19:34.751Z,0.00
2019-02-23T04:20:34.741Z,0.00
2019-02-23T04:21:34.726Z,0.00
2019-02-23T04:22:34.714Z,0.00
2019-02-23T04:23:34.721Z,0.00
2019-02-23T04:24:34.728Z,0.00
2019-02-23T04:25:34.684Z,0.00
2019-02-23T04:26:34.678Z,0.00
2019-02-23T04:27:34.664Z,0.00
2019-02-23T04:28:34.652Z,0.00
2019-02-23T04:29:34.663Z,0.00
2019-02-23T04:30:34.671Z,0.00
2019-02-23T04:31:34.624Z,0.00
2019-02-23T04:32:34.609Z,0.00
2019-02-23T04:33:34.596Z,0.00
2019-02-23T04:34:34.593Z,0.00
2019-02-23T04:35:46.533Z,0.00
2019-02-23T04:36:34.570Z,0.00
2019-02-23T04:37:34.562Z,0.00
2019-02-23T04:38:34.542Z,0.00
2019-02-23T04:39:34.535Z,0.00
2019-02-23T04:40:34.546Z,0.00
2019-02-23T04:41:34.519Z,0.00
2019-02-23T04:42:34.536Z,0.00
2019-02-23T04:43:34.523Z,0.00
2019-02-23T04:44:34.487Z,0.00
2019-02-23T04:45:34.468Z,0.00
2019-02-23T04:46:34.461Z,0.00
2019-02-23T04:47:34.449Z,0.00
2019-02-23T04:48:34.507Z,0.00
2019-02-23T04:49:34.435Z,0.00
2019-02-23T04:50:34.421Z,0.00
2019-02-23T04:51:34.416Z,0.00
2019-02-23T04:52:34.402Z,0.00
2019-02-23T04:53:34.389Z,0.00
2019-02-23T04:54:34.569Z,0.00
2019-02-23T04:55:34.367Z,0.00
2019-02-23T04:56:34.361Z,0.00
2019-02-23T04:57:34.343Z,0.00
2019-02-23T04:58:34.337Z,0.00
2019-02-23T04:59:34.326Z,0.00
2019-02-23T05:00:34.360Z,0.00
2019-02-23T05:01:34.300Z,0.00
2019-02-23T05:02:34.297Z,0.00
2019-02-23T05:03:34.283Z,0.00
2019-02-23T05:04:34.275Z,0.00
2019-02-23T05:05:34.258Z,0.00
2019-02-23T05:06:45.241Z,0.00
2019-02-23T05:07:34.238Z,0.00
2019-02-23T05:08:34.231Z,0.00
2019-02-23T05:09:34.229Z,0.00
2019-02-23T05:10:34.211Z,0.00
2019-02-23T05:11:34.196Z,0.00
2019-02-23T05:12:34.253Z,0.00
2019-02-23T05:13:34.181Z,0.00
2019-02-23T05:14:34.190Z,0.00
2019-02-23T05:15:34.158Z,0.00
2019-02-23T05:16:34.145Z,0.00
2019-02-23T05:17:34.133Z,0.00
2019-02-23T05:18:34.163Z,0.00
2019-02-23T05:19:34.124Z,0.00
2019-02-23T05:20:34.262Z,0.00
2019-02-23T05:21:34.088Z,0.00
2019-02-23T05:22:34.086Z,0.00
2019-02-23T05:23:34.078Z,0.00
2019-02-23T05:24:34.105Z,0.00
2019-02-23T05:25:34.050Z,0.00
2019-02-23T05:26:34.042Z,0.00
2019-02-23T05:27:34.031Z,0.00
2019-02-23T05:28:34.039Z,0.00
2019-02-23T05:29:34.012Z,0.00
2019-02-23T05:30:34.035Z,0.00
2019-02-23T05:31:33.988Z,0.00
2019-02-23T05:32:33.977Z,5.62
2019-02-23T05:33:33.971Z,5.62
2019-02-23T05:34:33.960Z,5.62
2019-02-23T05:35:33.943Z,5.62
2019-02-23T05:36:34.111Z,5.62
2019-02-23T05:37:44.426Z,5.62
2019-02-23T05:38:33.918Z,5.62
2019-02-23T05:39:33.906Z,5.62
2019-02-23T05:40:33.898Z,5.62
2019-02-23T05:41:33.881Z,5.62
2019-02-23T05:42:33.921Z,5.62
2019-02-23T05:43:33.906Z,5.62
2019-02-23T05:44:33.855Z,5.62
2019-02-23T05:45:33.846Z,5.62
2019-02-23T05:46:33.827Z,5.62
2019-02-23T05:47:33.821Z,5.62
2019-02-23T05:48:33.822Z,5.62
2019-02-23T05:49:36.644Z,5.62
2019-02-23T05:50:33.798Z,5.62
2019-02-23T05:51:38.755Z,11.25
2019-02-23T05:52:34.768Z,11.25
2019-02-23T05:53:33.754Z,11.25
2019-02-23T05:54:33.781Z,11.25
2019-02-23T05:55:33.734Z,11.25
2019-02-23T05:56:33.737Z,11.25
2019-02-23T05:57:33.713Z,11.25
2019-02-23T05:58:33.754Z,11.25
2019-02-23T05:59:33.694Z,11.25
2019-02-23T06:00:33.718Z,16.88
2019-02-23T06:01:33.674Z,16.88
2019-02-23T06:02:33.674Z,16.88
2019-02-23T06:03:33.652Z,16.88
2019-02-23T06:04:33.638Z,16.88
2019-02-23T06:05:33.631Z,22.50
2019-02-23T06:06:33.655Z,22.50
2019-02-23T06:07:33.607Z,22.50
2019-02-23T06:08:43.807Z,22.50
2019-02-23T06:09:33.583Z,22.50
2019-02-23T06:10:33.581Z,22.50
2019-02-23T06:11:33.565Z,22.50
2019-02-23T06:12:33.608Z,28.12
2019-02-23T06:13:33.545Z,28.12
2019-02-23T06:14:33.536Z,28.12
2019-02-23T06:15:33.527Z,28.12
2019-02-23T06:16:33.509Z,28.12
2019-02-23T06:17:33.505Z,33.75
2019-02-23T06:18:33.511Z,33.75
2019-02-23T06:19:33.482Z,33.75
2019-02-23T06:20:33.475Z,39.38
2019-02-23T06:21:33.458Z,39.38
2019-02-23T06:22:33.453Z,39.38
2019-02-23T06:23:33.446Z,39.38
2019-02-23T06:24:33.470Z,45.00
2019-02-23T06:25:33.442Z,45.00
2019-02-23T06:26:33.418Z,50.62
2019-02-23T06:27:33.394Z,50.62
2019-02-23T06:28:33.382Z,56.25
2019-02-23T06:29:33.377Z,61.88
2019-02-23T06:30:33.400Z,61.88
2019-02-23T06:31:33.353Z,67.50
2019-02-23T06:32:33.352Z,67.50
2019-02-23T06:33:33.334Z,67.50
2019-02-23T06:34:33.323Z,67.50
2019-02-23T06:35:33.313Z,73.12
2019-02-23T06:36:33.341Z,73.12
2019-02-23T06:37:33.295Z,67.50
2019-02-23T06:38:33.289Z,67.50
2019-02-23T06:39:45.143Z,61.88
2019-02-23T06:40:33.260Z,61.88
2019-02-23T06:41:33.250Z,56.25
2019-02-23T06:42:33.279Z,61.88
2019-02-23T06:43:33.227Z,61.88
2019-02-23T06:44:33.222Z,56.25
2019-02-23T06:45:33.212Z,56.25
2019-02-23T06:46:33.199Z,56.25
2019-02-23T06:47:33.191Z,56.25
2019-02-23T06:48:33.218Z,56.25
2019-02-23T06:49:33.762Z,56.25
2019-02-23T06:50:33.158Z,56.25
2019-02-23T06:51:33.140Z,50.62
2019-02-23T06:52:33.137Z,50.62
2019-02-23T06:53:33.118Z,50.62
2019-02-23T06:54:33.151Z,50.62
2019-02-23T06:55:33.106Z,50.62
2019-02-23T06:56:33.088Z,50.62
2019-02-23T06:57:33.078Z,50.62
2019-02-23T06:58:33.081Z,50.62
2019-02-23T06:59:33.057Z,50.62
2019-02-23T07:00:33.082Z,50.62
2019-02-23T07:01:33.038Z,50.62
2019-02-23T07:02:33.029Z,50.62
2019-02-23T07:03:33.013Z,50.62
2019-02-23T07:04:33.012Z,56.25
2019-02-23T07:05:32.995Z,61.88
2019-02-23T07:06:33.035Z,67.50
2019-02-23T07:07:32.980Z,78.75
2019-02-23T07:08:32.967Z,84.38
2019-02-23T07:09:32.952Z,84.38
2019-02-23T07:10:43.044Z,84.38
2019-02-23T07:11:32.935Z,84.38
2019-02-23T07:12:32.959Z,84.38
2019-02-23T07:13:32.915Z,78.75
2019-02-23T07:14:32.897Z,78.75
2019-02-23T07:15:32.889Z,78.75
2019-02-23T07:16:32.874Z,84.38
2019-02-23T07:17:32.869Z,84.38
2019-02-23T07:18:32.907Z,90.00
2019-02-23T07:19:32.842Z,95.62
2019-02-23T07:20:43.452Z,101.25
2019-02-23T07:21:33.826Z,106.88
2019-02-23T07:22:33.729Z,112.50
2019-02-23T07:23:32.805Z,118.12
2019-02-23T07:24:32.868Z,123.75
2019-02-23T07:25:32.781Z,123.75
2019-02-23T07:26:32.778Z,123.75
2019-02-23T07:27:32.769Z,123.75
2019-02-23T07:28:32.756Z,129.38
2019-02-23T07:29:32.738Z,129.38
2019-02-23T07:30:32.770Z,140.62
2019-02-23T07:31:32.716Z,151.88
2019-02-23T07:32:32.712Z,151.88
2019-02-23T07:33:33.362Z,146.25
2019-02-23T07:34:32.692Z,140.62
2019-02-23T07:35:32.679Z,135.00
2019-02-23T07:36:32.678Z,129.38
2019-02-23T07:37:32.659Z,135.00
2019-02-23T07:38:32.646Z,140.62
2019-02-23T07:39:32.633Z,123.75
2019-02-23T07:40:32.629Z,112.50
2019-02-23T07:41:43.315Z,112.50
2019-02-23T07:42:32.612Z,118.12
2019-02-23T07:43:32.597Z,157.50
2019-02-23T07:44:32.587Z,180.00
2019-02-23T07:45:32.574Z,191.25
2019-02-23T07:46:32.578Z,168.75
2019-02-23T07:47:32.591Z,168.75
2019-02-23T07:48:32.543Z,174.38
2019-02-23T07:49:32.532Z,174.38
2019-02-23T07:50:32.520Z,146.25
2019-02-23T07:51:32.507Z,135.00
2019-02-23T07:52:32.499Z,140.62
2019-02-23T07:53:32.533Z,163.12
2019-02-23T07:54:32.475Z,174.38
2019-02-23T07:55:32.509Z,174.38
2019-02-23T07:56:35.020Z,163.12
2019-02-23T07:57:32.449Z,151.88
2019-02-23T07:58:32.434Z,140.62
2019-02-23T07:59:32.468Z,140.62
2019-02-23T08:00:32.417Z,146.25
2019-02-23T08:01:32.403Z,140.62
2019-02-23T08:02:32.394Z,140.62
2019-02-23T08:03:32.382Z,146.25
2019-02-23T08:04:32.371Z,157.50
2019-02-23T08:05:32.398Z,157.50
2019-02-23T08:06:32.352Z,157.50
2019-02-23T08:07:32.334Z,151.88
2019-02-23T08:08:32.326Z,157.50
2019-02-23T08:09:32.315Z,163.12
2019-02-23T08:10:32.313Z,163.12
2019-02-23T08:11:32.336Z,163.12
2019-02-23T08:12:42.713Z,174.38
2019-02-23T08:13:32.271Z,168.75
2019-02-23T08:14:32.266Z,180.00
2019-02-23T08:15:32.257Z,180.00
2019-02-23T08:16:32.241Z,180.00
2019-02-23T08:17:32.267Z,180.00
2019-02-23T08:18:32.216Z,180.00
2019-02-23T08:19:32.205Z,180.00
2019-02-23T08:20:32.206Z,180.00
2019-02-23T08:21:32.188Z,185.62
2019-02-23T08:22:37.379Z,180.00
2019-02-23T08:23:33.208Z,185.62
2019-02-23T08:24:32.151Z,185.62
2019-02-23T08:25:32.153Z,185.62
2019-02-23T08:26:32.131Z,163.12
2019-02-23T08:27:32.125Z,151.88
2019-02-23T08:28:32.109Z,185.62
2019-02-23T08:29:32.141Z,174.38
2019-02-23T08:30:32.090Z,168.75
2019-02-23T08:31:32.087Z,180.00
2019-02-23T08:32:32.072Z,157.50
2019-02-23T08:33:32.059Z,174.38
2019-02-23T08:34:32.044Z,185.62
2019-02-23T08:35:32.055Z,163.12
2019-02-23T08:36:32.029Z,168.75
2019-02-23T08:37:32.019Z,180.00
2019-02-23T08:38:32.005Z,180.00
2019-02-23T08:39:31.992Z,174.38
2019-02-23T08:40:31.981Z,174.38
2019-02-23T08:41:32.018Z,185.62
2019-02-23T08:42:31.965Z,185.62
2019-02-23T08:43:42.642Z,180.00
2019-02-23T08:44:31.937Z,191.25
2019-02-23T08:45:31.932Z,196.88
2019-02-23T08:46:31.921Z,208.12
2019-02-23T08:47:31.949Z,219.38
2019-02-23T08:48:33.488Z,208.12
2019-02-23T08:49:31.890Z,213.75
2019-02-23T08:50:31.878Z,230.62
2019-02-23T08:51:31.863Z,230.62
2019-02-23T08:52:31.855Z,236.25
2019-02-23T08:53:31.875Z,225.00
2019-02-23T08:54:31.836Z,230.62
2019-02-23T08:55:31.820Z,236.25
2019-02-23T08:56:31.814Z,236.25
2019-02-23T08:57:31.809Z,270.00
2019-02-23T08:58:31.799Z,258.75
2019-02-23T08:59:31.821Z,241.88
2019-02-23T09:00:31.769Z,247.50
2019-02-23T09:01:31.831Z,264.38
2019-02-23T09:02:31.752Z,253.12
2019-02-23T09:03:31.733Z,253.12
2019-02-23T09:04:31.725Z,270.00
2019-02-23T09:05:31.754Z,236.25
2019-02-23T09:06:31.708Z,241.88
2019-02-23T09:07:31.693Z,258.75
2019-02-23T09:08:31.683Z,230.62
2019-02-23T09:09:31.671Z,241.88
2019-02-23T09:10:31.662Z,253.12
2019-02-23T09:11:31.681Z,241.88
2019-02-23T09:12:31.635Z,236.25
2019-02-23T09:13:31.627Z,241.88
2019-02-23T09:14:42.012Z,247.50
2019-02-23T09:15:31.601Z,241.88
2019-02-23T09:16:38.913Z,253.12
2019-02-23T09:17:31.584Z,225.00
2019-02-23T09:18:31.573Z,230.62
2019-02-23T09:19:31.565Z,281.25
2019-02-23T09:20:31.549Z,241.88
2019-02-23T09:21:31.554Z,208.12
2019-02-23T09:22:31.572Z,258.75
2019-02-23T09:23:31.521Z,264.38
2019-02-23T09:24:31.521Z,219.38
2019-02-23T09:25:31.497Z,213.75
2019-02-23T09:26:31.486Z,236.25
2019-02-23T09:27:31.478Z,236.25
2019-02-23T09:28:31.634Z,225.00
2019-02-23T09:29:31.482Z,219.38
2019-02-23T09:30:31.441Z,230.62
2019-02-23T09:31:31.432Z,225.00
2019-02-23T09:32:31.420Z,219.38
2019-02-23T09:33:31.414Z,213.75
2019-02-23T09:34:31.442Z,202.50
2019-02-23T09:35:32.379Z,202.50
2019-02-23T09:36:31.376Z,213.75
2019-02-23T09:37:31.367Z,208.12
2019-02-23T09:38:31.354Z,225.00
2019-02-23T09:39:31.347Z,236.25
2019-02-23T09:40:31.339Z,236.25
2019-02-23T09:41:31.339Z,241.88
2019-02-23T09:42:31.312Z,241.88
2019-02-23T09:43:31.304Z,230.62
2019-02-23T09:44:31.293Z,225.00
2019-02-23T09:45:31.299Z,236.25
2019-02-23T09:46:31.274Z,241.88
2019-02-23T09:47:41.466Z,236.25
2019-02-23T09:48:31.249Z,253.12
2019-02-23T09:49:31.263Z,241.88
2019-02-23T09:50:31.230Z,241.88
2019-02-23T09:51:31.395Z,253.12
2019-02-23T09:52:31.225Z,247.50
2019-02-23T09:53:31.200Z,247.50
2019-02-23T09:54:31.187Z,258.75
2019-02-23T09:55:31.191Z,253.12
2019-02-23T09:56:31.157Z,258.75
2019-02-23T09:57:31.189Z,247.50
2019-02-23T09:58:31.364Z,253.12
2019-02-23T09:59:31.130Z,253.12
2019-02-23T10:00:31.127Z,275.62
2019-02-23T10:01:31.108Z,270.00
2019-02-23T10:02:31.097Z,270.00
2019-02-23T10:03:31.258Z,258.75
2019-02-23T10:04:31.075Z,253.12
2019-02-23T10:05:31.062Z,258.75
2019-02-23T10:06:31.050Z,247.50
2019-02-23T10:07:31.056Z,247.50
2019-02-23T10:08:31.029Z,241.88
2019-02-23T10:09:31.068Z,241.88
2019-02-23T10:10:31.011Z,247.50
2019-02-23T10:11:31.000Z,236.25
2019-02-23T10:12:30.991Z,236.25
2019-02-23T10:13:30.986Z,230.62
2019-02-23T10:14:30.970Z,225.00
2019-02-23T10:15:30.995Z,241.88
2019-02-23T10:16:30.944Z,241.88
2019-02-23T10:17:30.941Z,241.88
2019-02-23T10:18:41.166Z,241.88
2019-02-23T10:19:30.917Z,230.62
2019-02-23T10:20:30.907Z,213.75
2019-02-23T10:21:30.934Z,225.00
2019-02-23T10:22:30.880Z,247.50
2019-02-23T10:23:30.877Z,275.62
2019-02-23T10:24:30.862Z,264.38
2019-02-23T10:25:30.847Z,241.88
2019-02-23T10:26:30.849Z,241.88
2019-02-23T10:27:30.865Z,247.50
2019-02-23T10:28:30.819Z,253.12
2019-02-23T10:29:30.814Z,241.88
2019-02-23T10:30:30.796Z,225.00
2019-02-23T10:31:30.790Z,225.00
2019-02-23T10:32:30.781Z,253.12
2019-02-23T10:33:30.806Z,275.62
2019-02-23T10:34:30.760Z,247.50
2019-02-23T10:35:30.743Z,253.12
2019-02-23T10:36:30.738Z,241.88
2019-02-23T10:37:30.733Z,219.38
2019-02-23T10:38:30.713Z,236.25
2019-02-23T10:39:30.745Z,281.25
2019-02-23T10:40:30.705Z,264.38
2019-02-23T10:41:30.678Z,225.00
2019-02-23T10:42:30.666Z,225.00
2019-02-23T10:43:30.661Z,230.62
2019-02-23T10:44:30.656Z,241.88
2019-02-23T10:45:30.677Z,241.88
2019-02-23T10:46:30.626Z,230.62
2019-02-23T10:47:30.619Z,225.00
2019-02-23T10:48:30.606Z,247.50
2019-02-23T10:49:41.320Z,247.50
2019-02-23T10:50:30.588Z,247.50
2019-02-23T10:51:30.612Z,247.50
2019-02-23T10:52:30.564Z,258.75
2019-02-23T10:53:33.088Z,247.50
2019-02-23T10:54:30.622Z,247.50
2019-02-23T10:55:30.528Z,247.50
2019-02-23T10:56:30.521Z,258.75
2019-02-23T10:57:30.538Z,286.88
2019-02-23T10:58:30.497Z,275.62
2019-02-23T10:59:30.492Z,247.50
2019-02-23T11:00:30.483Z,253.12
2019-02-23T11:01:30.471Z,264.38
2019-02-23T11:02:30.462Z,275.62
2019-02-23T11:03:30.470Z,298.12
2019-02-23T11:04:30.444Z,275.62
2019-02-23T11:05:30.424Z,320.62
2019-02-23T11:06:30.411Z,303.75
2019-02-23T11:07:30.407Z,298.12
2019-02-23T11:08:30.395Z,281.25
2019-02-23T11:09:30.426Z,281.25
2019-02-23T11:10:30.371Z,275.62
2019-02-23T11:11:30.363Z,298.12
2019-02-23T11:12:30.347Z,298.12
2019-02-23T11:13:30.335Z,286.88
2019-02-23T11:14:30.325Z,286.88
2019-02-23T11:15:30.356Z,292.50
2019-02-23T11:16:30.304Z,292.50
2019-02-23T11:17:30.291Z,292.50
2019-02-23T11:18:30.312Z,292.50
2019-02-23T11:19:30.270Z,281.25
2019-02-23T11:20:41.053Z,286.88
2019-02-23T11:21:30.247Z,286.88
2019-02-23T11:22:30.246Z,275.62
2019-02-23T11:23:30.231Z,281.25
2019-02-23T11:24:30.225Z,298.12
2019-02-23T11:25:30.205Z,326.25
2019-02-23T11:26:30.240Z,298.12
2019-02-23T11:27:30.187Z,320.62
2019-02-23T11:28:30.174Z,326.25
2019-02-23T11:29:30.412Z,281.25
2019-02-23T11:30:30.153Z,326.25
2019-02-23T11:31:30.148Z,331.88
2019-02-23T11:32:30.144Z,343.12
2019-02-23T11:33:30.125Z,326.25
2019-02-23T11:34:30.107Z,348.75
2019-02-23T11:35:30.097Z,337.50
2019-02-23T11:36:30.093Z,320.62
2019-02-23T11:37:30.074Z,331.88
2019-02-23T11:38:30.248Z,326.25
2019-02-23T11:39:30.057Z,326.25
2019-02-23T11:40:30.041Z,371.25
2019-02-23T11:41:30.037Z,343.12
2019-02-23T11:42:30.022Z,365.62
2019-02-23T11:43:30.017Z,348.75
2019-02-23T11:44:30.038Z,337.50
2019-02-23T11:45:30.980Z,365.62
2019-02-23T11:46:29.985Z,348.75
2019-02-23T11:47:29.975Z,331.88
2019-02-23T11:48:29.961Z,382.50
2019-02-23T11:49:29.960Z,382.50
2019-02-23T11:50:29.974Z,337.50
2019-02-23T11:51:42.114Z,371.25
2019-02-23T11:52:29.919Z,382.50
2019-02-23T11:53:29.910Z,433.12
2019-02-23T11:54:29.897Z,354.38
2019-02-23T11:55:29.883Z,410.62
2019-02-23T11:56:29.879Z,472.50
2019-02-23T11:57:29.862Z,523.12
2019-02-23T11:58:29.854Z,433.12
2019-02-23T11:59:29.838Z,360.00
2019-02-23T12:00:29.826Z,382.50
2019-02-23T12:01:29.818Z,326.25
2019-02-23T12:02:29.847Z,326.25
2019-02-23T12:03:29.791Z,281.25
2019-02-23T12:04:29.781Z,326.25
2019-02-23T12:05:29.776Z,365.62
2019-02-23T12:06:29.765Z,382.50
2019-02-23T12:07:29.751Z,348.75
2019-02-23T12:08:29.772Z,343.12
2019-02-23T12:09:29.725Z,421.88
2019-02-23T12:10:29.730Z,444.38
2019-02-23T12:11:29.722Z,320.62
2019-02-23T12:12:29.696Z,399.38
2019-02-23T12:13:29.683Z,742.50
2019-02-23T12:14:29.706Z,343.12
2019-02-23T12:15:29.695Z,472.50
2019-02-23T12:16:29.678Z,450.00
2019-02-23T12:17:29.647Z,320.62
2019-02-23T12:18:29.628Z,376.88
2019-02-23T12:19:29.619Z,489.38
2019-02-23T12:20:29.644Z,506.25
2019-02-23T12:21:29.616Z,517.50
2019-02-23T12:22:39.833Z,720.00
2019-02-23T12:23:29.576Z,461.25
2019-02-23T12:24:29.560Z,618.75
2019-02-23T12:25:29.554Z,421.88
2019-02-23T12:26:29.552Z,630.00
2019-02-23T12:27:29.530Z,1738.12
2019-02-23T12:28:29.522Z,506.25
2019-02-23T12:29:29.515Z,945.00
2019-02-23T12:30:29.502Z,736.88
2019-02-23T12:31:29.491Z,1035.00
2019-02-23T12:32:29.523Z,590.62
2019-02-23T12:33:29.468Z,601.88
2019-02-23T12:34:29.468Z,421.88
2019-02-23T12:35:29.447Z,1096.88
2019-02-23T12:36:29.436Z,967.50
2019-02-23T12:37:29.424Z,916.88
2019-02-23T12:38:29.452Z,821.25
2019-02-23T12:39:29.402Z,1501.88
2019-02-23T12:40:29.394Z,1051.88
2019-02-23T12:41:29.381Z,832.50
2019-02-23T12:42:29.369Z,832.50
2019-02-23T12:43:29.358Z,1575.00
2019-02-23T12:44:29.370Z,1147.50
2019-02-23T12:45:29.338Z,573.75
2019-02-23T12:46:29.322Z,753.75
2019-02-23T12:47:29.311Z,652.50
2019-02-23T12:48:29.304Z,956.25
2019-02-23T12:49:29.292Z,973.12
2019-02-23T12:50:29.290Z,871.88
2019-02-23T12:51:29.276Z,714.38
2019-02-23T12:52:29.263Z,658.12
2019-02-23T12:53:39.599Z,556.88